Norway, Maine
Current Conditions -  °F | °C
As of 4:35 AM on Friday 28 Nov 2014 (Local Time) from KLEW Reporting Station
Overcast Overcast  
Wind Chill: 21°   Ceiling: 5000
Heat Index: 21°   Visibility: 10mi
Dew Point: 18°   Wind: 0mph
Humidity: 86%   Direction: NA
Pressure: 30"   Gusts: NA
Location:  44.21°N, 70.54°W
Report Text: KLEW 280935Z AUTO 00000KT 10SM OVC050 M06/M08 A3000 RMK AO1
Loading
Personal Weather Stations






























Interactive Weather Map New forecast layout! Learn more

10-Day Weather Forecast

Advertisements
Track Severe Weather on mobile